Terminal Aerodrome Forecast
Issued by NWS Charleston, WV

Home | Current Version | Previous Version | Text Only | Print | Product List | Glossary On
Versions: 1 2 3 4 5 6 7 8 9 10 11 12 13 14 15 16 17 18 19 20 21 22 23
319
FTUS41 KRLX 271001 AAB
TAFHTS
TAF AMD
KHTS 271001Z 2710/2806 VRB03KT 3SM BR FEW001 FEW200
      TEMPO 2710/2712 1SM BR BKN001
     FM271300 22004KT P6SM SKC
     FM271500 22007KT P6SM SKC
     FM280200 00000KT P6SM SKC=

USA.gov is the U.S. government's official web portal to all federal, state and local government web resources and services.